createdAt,value
2022-09-11T00:00:25.356Z,37.80
2022-09-11T00:01:25.347Z,37.20
2022-09-11T00:02:25.348Z,37.20
2022-09-11T00:03:25.383Z,34.30
2022-09-11T00:04:25.325Z,35.60
2022-09-11T00:05:25.280Z,37.20
2022-09-11T00:06:29.828Z,38.90
2022-09-11T00:07:25.286Z,35.10
2022-09-11T00:08:25.295Z,38.90
2022-09-11T00:09:25.283Z,38.50
2022-09-11T00:10:25.203Z,36.10
2022-09-11T00:11:25.282Z,37.40
2022-09-11T00:12:25.238Z,35.40
2022-09-11T00:13:25.225Z,37.20
2022-09-11T00:14:25.246Z,36.30
2022-09-11T00:15:25.187Z,37.40
2022-09-11T00:16:25.233Z,36.20
2022-09-11T00:17:25.121Z,35.70
2022-09-11T00:18:25.236Z,37.60
2022-09-11T00:19:25.161Z,39.50
2022-09-11T00:20:25.098Z,34.80
2022-09-11T00:21:25.116Z,34.80
2022-09-11T00:22:25.067Z,38.10
2022-09-11T00:23:25.052Z,34.60
2022-09-11T00:24:25.096Z,31.90
2022-09-11T00:25:25.071Z,35.50
2022-09-11T00:26:25.045Z,34.00
2022-09-11T00:27:25.053Z,34.00
2022-09-11T00:28:25.010Z,33.60
2022-09-11T00:29:25.046Z,34.20
2022-09-11T00:30:24.966Z,35.70
2022-09-11T00:31:25.040Z,35.50
2022-09-11T00:32:24.998Z,35.60
2022-09-11T00:33:25.052Z,38.80
2022-09-11T00:34:24.970Z,35.80
2022-09-11T00:35:24.967Z,36.70
2022-09-11T00:36:24.943Z,34.30
2022-09-11T00:37:24.934Z,37.30
2022-09-11T00:38:24.957Z,40.60
2022-09-11T00:39:24.887Z,35.70
2022-09-11T00:40:24.977Z,37.00
2022-09-11T00:41:24.900Z,35.20
2022-09-11T00:42:24.849Z,42.60
2022-09-11T00:43:24.908Z,37.40
2022-09-11T00:44:24.826Z,36.30
2022-09-11T00:45:24.890Z,34.10
2022-09-11T00:46:24.814Z,33.70
2022-09-11T00:47:24.815Z,34.30
2022-09-11T00:48:24.824Z,32.90
2022-09-11T00:49:24.744Z,34.30
2022-09-11T00:50:24.776Z,37.50
2022-09-11T00:51:24.756Z,35.70
2022-09-11T00:52:24.716Z,37.20
2022-09-11T00:53:24.717Z,36.40
2022-09-11T00:54:24.691Z,35.60
2022-09-11T00:55:24.678Z,33.30
2022-09-11T00:56:24.728Z,36.90
2022-09-11T00:57:24.684Z,33.20
2022-09-11T00:58:24.686Z,36.40
2022-09-11T00:59:24.637Z,36.70
2022-09-11T01:00:24.637Z,34.60
2022-09-11T01:01:24.623Z,37.10
2022-09-11T01:02:27.406Z,33.90
2022-09-11T01:03:24.612Z,34.00
2022-09-11T01:04:24.629Z,35.10
2022-09-11T01:05:24.604Z,36.30
2022-09-11T01:06:24.582Z,36.80
2022-09-11T01:07:24.610Z,36.20
2022-09-11T01:08:24.567Z,35.00
2022-09-11T01:09:24.563Z,36.50
2022-09-11T01:10:24.576Z,33.80
2022-09-11T01:11:24.528Z,37.60
2022-09-11T01:12:24.516Z,35.60
2022-09-11T01:13:24.503Z,35.70
2022-09-11T01:14:24.549Z,34.90
2022-09-11T01:15:24.472Z,35.20
2022-09-11T01:16:24.487Z,36.60
2022-09-11T01:17:24.465Z,40.20
2022-09-11T01:18:24.510Z,39.60
2022-09-11T01:19:24.496Z,39.30
2022-09-11T01:20:24.415Z,43.90
2022-09-11T01:21:24.371Z,41.90
2022-09-11T01:22:24.390Z,41.50
2022-09-11T01:23:24.394Z,41.50
2022-09-11T01:24:24.385Z,39.20
2022-09-11T01:25:24.413Z,39.20
2022-09-11T01:26:24.340Z,38.80
2022-09-11T01:27:24.335Z,42.90
2022-09-11T01:28:24.327Z,43.00
2022-09-11T01:29:24.363Z,40.30
2022-09-11T01:30:24.337Z,44.00
2022-09-11T01:31:24.333Z,43.20
2022-09-11T01:32:24.312Z,41.70
2022-09-11T01:33:24.241Z,47.10
2022-09-11T01:34:24.268Z,44.60
2022-09-11T01:35:24.374Z,52.10
2022-09-11T01:36:24.275Z,46.40
2022-09-11T01:37:24.198Z,42.40
2022-09-11T01:38:24.216Z,43.60
2022-09-11T01:39:24.202Z,44.70
2022-09-11T01:40:24.217Z,41.20
2022-09-11T01:41:24.155Z,43.60
2022-09-11T01:42:24.174Z,43.10
2022-09-11T01:43:24.158Z,47.30
2022-09-11T01:44:24.106Z,46.30
2022-09-11T01:45:24.180Z,48.30
2022-09-11T01:46:24.154Z,46.90
2022-09-11T01:47:24.102Z,45.20
2022-09-11T01:48:24.067Z,43.90
2022-09-11T01:49:24.115Z,45.30
2022-09-11T01:50:24.039Z,47.90
2022-09-11T01:51:24.044Z,46.60
2022-09-11T01:52:24.055Z,46.70
2022-09-11T01:53:24.002Z,46.20
2022-09-11T01:54:24.030Z,44.10
2022-09-11T01:55:23.996Z,48.50
2022-09-11T01:56:23.994Z,45.70
2022-09-11T01:57:23.978Z,43.20
2022-09-11T01:58:23.964Z,45.20
2022-09-11T01:59:23.932Z,47.00
2022-09-11T02:00:23.963Z,42.80
2022-09-11T02:01:23.966Z,46.30
2022-09-11T02:02:23.975Z,47.00
2022-09-11T02:03:23.923Z,42.00
2022-09-11T02:04:23.872Z,42.00
2022-09-11T02:05:23.867Z,44.40
2022-09-11T02:06:23.892Z,44.10
2022-09-11T02:07:23.881Z,42.20
2022-09-11T02:08:23.827Z,41.20
2022-09-11T02:09:23.855Z,43.70
2022-09-11T02:10:23.802Z,42.80
2022-09-11T02:11:23.837Z,38.80
2022-09-11T02:12:23.875Z,45.20
2022-09-11T02:13:27.592Z,42.50
2022-09-11T02:14:23.771Z,39.20
2022-09-11T02:15:23.795Z,40.40
2022-09-11T02:16:23.787Z,40.10
2022-09-11T02:17:23.782Z,43.90
2022-09-11T02:18:23.753Z,42.40
2022-09-11T02:19:23.709Z,41.90
2022-09-11T02:20:23.729Z,41.80
2022-09-11T02:21:23.720Z,43.50
2022-09-11T02:22:23.710Z,41.10
2022-09-11T02:23:23.666Z,42.30
2022-09-11T02:24:23.663Z,39.10
2022-09-11T02:25:23.634Z,40.70
2022-09-11T02:26:23.619Z,41.10
2022-09-11T02:27:23.628Z,42.70
2022-09-11T02:28:23.656Z,40.00
2022-09-11T02:29:23.682Z,40.40
2022-09-11T02:30:23.587Z,41.60
2022-09-11T02:31:23.631Z,40.90
2022-09-11T02:32:23.553Z,39.30
2022-09-11T02:33:23.592Z,41.20
2022-09-11T02:34:23.581Z,40.00
2022-09-11T02:35:23.564Z,37.70
2022-09-11T02:36:23.517Z,40.10
2022-09-11T02:37:23.532Z,38.30
2022-09-11T02:38:23.535Z,40.40
2022-09-11T02:39:23.517Z,40.60
2022-09-11T02:40:23.514Z,39.40
2022-09-11T02:41:23.466Z,41.20
2022-09-11T02:42:23.495Z,42.80
2022-09-11T02:43:23.436Z,43.30
2022-09-11T02:44:23.438Z,40.30
2022-09-11T02:45:23.549Z,38.50
2022-09-11T02:46:23.442Z,39.50
2022-09-11T02:47:23.444Z,40.90
2022-09-11T02:48:23.405Z,45.90
2022-09-11T02:49:23.384Z,45.00
2022-09-11T02:50:23.373Z,43.40
2022-09-11T02:51:23.659Z,44.10
2022-09-11T02:52:23.378Z,47.30
2022-09-11T02:53:23.326Z,46.40
2022-09-11T02:54:23.338Z,44.60
2022-09-11T02:55:23.331Z,41.60
2022-09-11T02:56:23.330Z,41.80
2022-09-11T02:57:23.361Z,44.10
2022-09-11T02:58:23.321Z,43.90
2022-09-11T02:59:23.259Z,46.50
2022-09-11T03:00:23.253Z,46.90
2022-09-11T03:01:23.245Z,47.20
2022-09-11T03:02:23.281Z,43.80
2022-09-11T03:03:23.295Z,42.50
2022-09-11T03:04:23.282Z,42.40
2022-09-11T03:05:23.225Z,40.50
2022-09-11T03:06:23.209Z,42.60
2022-09-11T03:07:23.180Z,43.00
2022-09-11T03:08:23.186Z,43.00
2022-09-11T03:09:23.209Z,39.20
2022-09-11T03:10:23.170Z,46.30
2022-09-11T03:11:23.160Z,40.10
2022-09-11T03:12:23.180Z,42.20
2022-09-11T03:13:23.130Z,42.10
2022-09-11T03:14:23.111Z,43.30
2022-09-11T03:15:23.177Z,41.20
2022-09-11T03:16:23.089Z,45.00
2022-09-11T03:17:23.084Z,43.60
2022-09-11T03:18:23.073Z,43.40
2022-09-11T03:19:23.074Z,44.50
2022-09-11T03:20:23.137Z,42.30
2022-09-11T03:21:23.116Z,43.20
2022-09-11T03:22:23.078Z,43.30
2022-09-11T03:23:22.999Z,40.30
2022-09-11T03:24:23.102Z,42.80
2022-09-11T03:25:23.024Z,50.10
2022-09-11T03:26:22.968Z,41.70
2022-09-11T03:27:23.004Z,46.60
2022-09-11T03:28:22.966Z,50.70
2022-09-11T03:29:22.934Z,44.40
2022-09-11T03:30:22.952Z,53.60
2022-09-11T03:31:23.058Z,45.30
2022-09-11T03:32:22.931Z,44.90
2022-09-11T03:33:22.992Z,53.60
2022-09-11T03:34:22.915Z,59.00
2022-09-11T03:35:22.935Z,51.10
2022-09-11T03:36:22.851Z,46.00
2022-09-11T03:37:22.897Z,48.70
2022-09-11T03:38:22.833Z,44.10
2022-09-11T03:39:22.830Z,60.50
2022-09-11T03:40:22.883Z,46.00
2022-09-11T03:41:22.848Z,50.30
2022-09-11T03:42:22.838Z,44.10
2022-09-11T03:43:22.810Z,44.30
2022-09-11T03:44:22.802Z,46.30
2022-09-11T03:45:22.856Z,45.00
2022-09-11T03:46:22.773Z,53.30
2022-09-11T03:47:22.803Z,45.30
2022-09-11T03:48:22.750Z,49.20
2022-09-11T03:49:22.722Z,50.60
2022-09-11T03:50:22.802Z,49.00
2022-09-11T03:51:22.742Z,53.50
2022-09-11T03:52:22.729Z,66.20
2022-09-11T03:53:22.664Z,48.90
2022-09-11T03:54:22.710Z,45.60
2022-09-11T03:55:22.710Z,46.80
2022-09-11T03:56:22.658Z,44.80
2022-09-11T03:57:22.614Z,49.40
2022-09-11T03:58:22.618Z,44.90
2022-09-11T03:59:22.622Z,44.60
2022-09-11T04:00:22.627Z,44.70
2022-09-11T04:01:22.674Z,43.20
2022-09-11T04:02:22.670Z,43.70
2022-09-11T04:03:22.559Z,44.20
2022-09-11T04:04:22.596Z,44.40
2022-09-11T04:05:22.589Z,44.60
2022-09-11T04:06:22.536Z,47.30
2022-09-11T04:07:22.568Z,45.10
2022-09-11T04:08:22.541Z,48.10
2022-09-11T04:09:22.528Z,42.90
2022-09-11T04:10:22.551Z,45.60
2022-09-11T04:11:22.573Z,54.90
2022-09-11T04:12:22.501Z,47.10
2022-09-11T04:13:22.477Z,46.10
2022-09-11T04:14:22.517Z,46.20
2022-09-11T04:15:22.544Z,46.00
2022-09-11T04:16:22.481Z,46.90
2022-09-11T04:17:22.455Z,44.40
2022-09-11T04:18:22.503Z,47.40
2022-09-11T04:19:22.401Z,42.00
2022-09-11T04:20:22.443Z,44.40
2022-09-11T04:21:22.434Z,44.80
2022-09-11T04:22:22.411Z,63.70
2022-09-11T04:23:22.359Z,42.00
2022-09-11T04:24:22.427Z,47.30
2022-09-11T04:25:22.417Z,45.10
2022-09-11T04:26:22.360Z,67.60
2022-09-11T04:27:22.369Z,61.10
2022-09-11T04:28:22.367Z,48.50
2022-09-11T04:29:22.317Z,46.50
2022-09-11T04:30:22.386Z,51.40
2022-09-11T04:31:22.281Z,43.80
2022-09-11T04:32:22.365Z,42.00
2022-09-11T04:33:22.391Z,56.80
2022-09-11T04:34:22.299Z,52.00
2022-09-11T04:35:22.328Z,50.60
2022-09-11T04:36:22.225Z,41.80
2022-09-11T04:37:22.262Z,46.00
2022-09-11T04:38:22.172Z,45.40
2022-09-11T04:39:22.231Z,42.90
2022-09-11T04:40:22.278Z,44.30
2022-09-11T04:41:22.229Z,48.50
2022-09-11T04:42:22.237Z,45.70
2022-09-11T04:43:22.209Z,41.40
2022-09-11T04:44:22.167Z,42.40
2022-09-11T04:45:22.266Z,45.60
2022-09-11T04:46:22.200Z,40.30
2022-09-11T04:47:22.143Z,54.60
2022-09-11T04:48:22.091Z,43.40
2022-09-11T04:49:22.061Z,45.40
2022-09-11T04:50:22.160Z,44.10
2022-09-11T04:51:22.187Z,46.40
2022-09-11T04:52:22.068Z,40.70
2022-09-11T04:53:22.019Z,41.80
2022-09-11T04:54:22.042Z,43.90
2022-09-11T04:55:22.022Z,46.20
2022-09-11T04:56:21.988Z,43.30
2022-09-11T04:57:22.085Z,40.40
2022-09-11T04:58:22.049Z,41.20
2022-09-11T04:59:21.979Z,41.50
2022-09-11T05:00:21.988Z,39.50
2022-09-11T05:01:22.011Z,39.60
2022-09-11T05:02:22.110Z,41.20
2022-09-11T05:03:21.968Z,38.30
2022-09-11T05:04:25.965Z,41.10
2022-09-11T05:05:21.933Z,48.60
2022-09-11T05:06:21.995Z,42.90
2022-09-11T05:07:21.887Z,40.10
2022-09-11T05:08:21.982Z,40.80
2022-09-11T05:09:21.933Z,48.00
2022-09-11T05:10:21.880Z,42.10
2022-09-11T05:11:21.850Z,45.80
2022-09-11T05:12:21.896Z,40.50
2022-09-11T05:13:21.955Z,44.80
2022-09-11T05:14:21.841Z,44.30
2022-09-11T05:15:21.878Z,47.40
2022-09-11T05:16:21.929Z,47.40
2022-09-11T05:17:21.824Z,41.50
2022-09-11T05:18:21.816Z,45.20
2022-09-11T05:19:21.835Z,47.00
2022-09-11T05:20:21.818Z,44.50
2022-09-11T05:21:21.816Z,44.50
2022-09-11T05:22:21.738Z,42.90
2022-09-11T05:23:21.811Z,44.30
2022-09-11T05:24:21.749Z,41.80
2022-09-11T05:25:21.724Z,42.50
2022-09-11T05:26:21.706Z,46.20
2022-09-11T05:27:21.653Z,41.70
2022-09-11T05:28:21.762Z,42.50
2022-09-11T05:29:21.666Z,42.50
2022-09-11T05:30:21.742Z,44.30
2022-09-11T05:31:21.672Z,41.30
2022-09-11T05:32:21.689Z,43.40
2022-09-11T05:33:21.617Z,40.40
2022-09-11T05:34:21.587Z,38.90
2022-09-11T05:35:21.632Z,46.80
2022-09-11T05:36:21.602Z,42.90
2022-09-11T05:37:21.603Z,43.10
2022-09-11T05:38:21.643Z,38.80
2022-09-11T05:39:21.535Z,41.80
2022-09-11T05:40:21.588Z,38.40
2022-09-11T05:41:21.588Z,43.20
2022-09-11T05:42:21.538Z,45.40
2022-09-11T05:43:21.665Z,44.00
2022-09-11T05:44:21.549Z,42.20
2022-09-11T05:45:21.537Z,49.60
2022-09-11T05:46:21.521Z,39.20
2022-09-11T05:47:21.547Z,44.30
2022-09-11T05:48:21.553Z,43.40
2022-09-11T05:49:21.556Z,38.40
2022-09-11T05:50:21.512Z,43.10
2022-09-11T05:51:21.434Z,39.60
2022-09-11T05:52:21.415Z,41.00
2022-09-11T05:53:21.428Z,36.90
2022-09-11T05:54:21.475Z,40.60
2022-09-11T05:55:21.583Z,41.20
2022-09-11T05:56:21.486Z,45.00
2022-09-11T05:57:21.369Z,41.80
2022-09-11T05:58:21.550Z,41.00
2022-09-11T05:59:21.320Z,40.40
2022-09-11T06:00:21.349Z,41.40
2022-09-11T06:01:21.452Z,51.20
2022-09-11T06:02:21.339Z,40.80
2022-09-11T06:03:21.269Z,41.60
2022-09-11T06:04:21.346Z,42.60
2022-09-11T06:05:21.413Z,45.30
2022-09-11T06:06:21.359Z,46.20
2022-09-11T06:07:21.358Z,41.60
2022-09-11T06:08:21.357Z,43.90
2022-09-11T06:09:21.178Z,47.90
2022-09-11T06:10:21.269Z,48.30
2022-09-11T06:11:21.217Z,44.90
2022-09-11T06:12:21.279Z,44.50
2022-09-11T06:13:21.195Z,43.20
2022-09-11T06:14:21.269Z,41.80
2022-09-11T06:15:45.304Z,44.70
2022-09-11T06:16:21.301Z,41.50
2022-09-11T06:17:21.152Z,40.10
2022-09-11T06:18:21.158Z,43.00
2022-09-11T06:19:21.206Z,41.50
2022-09-11T06:20:21.237Z,42.10
2022-09-11T06:21:21.246Z,43.30
2022-09-11T06:22:21.153Z,42.40
2022-09-11T06:23:21.120Z,41.20
2022-09-11T06:24:21.049Z,41.20
2022-09-11T06:25:21.139Z,40.90
2022-09-11T06:26:21.099Z,40.80
2022-09-11T06:27:21.070Z,40.30
2022-09-11T06:28:21.048Z,42.80
2022-09-11T06:29:21.112Z,44.60
2022-09-11T06:30:21.028Z,40.30
2022-09-11T06:31:21.201Z,45.80
2022-09-11T06:32:21.011Z,42.50
2022-09-11T06:33:21.083Z,42.00
2022-09-11T06:34:20.963Z,40.50
2022-09-11T06:35:21.079Z,39.90
2022-09-11T06:36:21.092Z,44.00
2022-09-11T06:37:20.905Z,41.90
2022-09-11T06:38:20.998Z,40.00
2022-09-11T06:39:20.948Z,44.10
2022-09-11T06:40:21.286Z,43.80
2022-09-11T06:41:21.042Z,41.50
2022-09-11T06:42:20.943Z,46.80
2022-09-11T06:43:20.887Z,43.60
2022-09-11T06:44:21.077Z,43.90
2022-09-11T06:45:20.947Z,43.00
2022-09-11T06:46:20.913Z,46.80
2022-09-11T06:47:20.985Z,44.40
2022-09-11T06:48:21.055Z,45.20
2022-09-11T06:49:21.236Z,44.50
2022-09-11T06:50:20.884Z,43.80
2022-09-11T06:51:20.955Z,42.00
2022-09-11T06:52:20.887Z,46.50
2022-09-11T06:53:20.873Z,43.80
2022-09-11T06:54:20.735Z,46.30
2022-09-11T06:55:20.927Z,50.20
2022-09-11T06:56:20.840Z,46.40
2022-09-11T06:57:20.677Z,46.10
2022-09-11T06:58:20.762Z,45.50
2022-09-11T06:59:20.744Z,45.00
2022-09-11T07:00:20.689Z,43.10
2022-09-11T07:01:20.741Z,43.20
2022-09-11T07:02:20.742Z,45.80
2022-09-11T07:03:20.714Z,47.10
2022-09-11T07:04:20.677Z,44.30
2022-09-11T07:05:20.639Z,43.90
2022-09-11T07:06:20.660Z,44.50
2022-09-11T07:07:20.592Z,43.30
2022-09-11T07:08:24.357Z,42.90
2022-09-11T07:09:20.589Z,43.10
2022-09-11T07:10:20.611Z,42.00
2022-09-11T07:11:20.651Z,40.50
2022-09-11T07:12:20.507Z,44.70
2022-09-11T07:13:20.459Z,41.10
2022-09-11T07:14:20.529Z,41.60
2022-09-11T07:15:20.560Z,42.80
2022-09-11T07:16:20.540Z,42.90
2022-09-11T07:17:20.449Z,41.40
2022-09-11T07:18:20.407Z,41.70
2022-09-11T07:19:20.560Z,42.60
2022-09-11T07:20:20.410Z,42.50
2022-09-11T07:21:20.378Z,41.70
2022-09-11T07:22:20.459Z,42.70
2022-09-11T07:23:20.400Z,39.60
2022-09-11T07:24:20.553Z,40.50
2022-09-11T07:25:20.424Z,41.00
2022-09-11T07:26:20.406Z,39.60
2022-09-11T07:27:20.408Z,39.10
2022-09-11T07:28:20.289Z,39.70
2022-09-11T07:29:20.309Z,39.10
2022-09-11T07:30:20.269Z,40.00
2022-09-11T07:31:21.225Z,40.10
2022-09-11T07:32:20.247Z,38.20
2022-09-11T07:33:20.311Z,37.10
2022-09-11T07:34:20.285Z,39.10
2022-09-11T07:35:20.474Z,38.10
2022-09-11T07:36:20.283Z,39.50
2022-09-11T07:37:20.249Z,39.30
2022-09-11T07:38:20.338Z,38.60
2022-09-11T07:39:20.285Z,38.70
2022-09-11T07:40:20.179Z,39.40
2022-09-11T07:41:20.273Z,40.60
2022-09-11T07:42:20.262Z,40.70
2022-09-11T07:43:20.202Z,40.50
2022-09-11T07:44:20.168Z,37.00
2022-09-11T07:45:22.732Z,37.40
2022-09-11T07:46:20.122Z,38.00
2022-09-11T07:47:20.091Z,38.20
2022-09-11T07:48:20.141Z,38.40
2022-09-11T07:49:20.196Z,38.00
2022-09-11T07:50:20.172Z,36.70
2022-09-11T07:51:20.112Z,38.10
2022-09-11T07:52:20.093Z,36.30
2022-09-11T07:53:20.041Z,34.40
2022-09-11T07:54:20.032Z,37.40
2022-09-11T07:55:20.143Z,35.20
2022-09-11T07:56:20.062Z,34.20
2022-09-11T07:57:20.153Z,35.90
2022-09-11T07:58:19.981Z,34.70
2022-09-11T07:59:20.106Z,34.40
2022-09-11T08:00:20.068Z,33.80
2022-09-11T08:01:20.246Z,36.90
2022-09-11T08:02:20.164Z,34.80
2022-09-11T08:03:19.961Z,34.80
2022-09-11T08:04:19.864Z,32.60
2022-09-11T08:05:20.186Z,34.10
2022-09-11T08:06:22.368Z,32.70
2022-09-11T08:07:20.073Z,31.70
2022-09-11T08:08:19.948Z,34.50
2022-09-11T08:09:19.931Z,32.50
2022-09-11T08:10:28.178Z,33.60
2022-09-11T08:11:19.936Z,32.30
2022-09-11T08:12:19.973Z,32.70
2022-09-11T08:13:19.900Z,32.80
2022-09-11T08:14:19.848Z,31.10
2022-09-11T08:15:19.901Z,30.40
2022-09-11T08:16:19.829Z,31.80
2022-09-11T08:17:19.775Z,31.30
2022-09-11T08:18:19.766Z,28.80
2022-09-11T08:19:19.799Z,30.00
2022-09-11T08:20:19.905Z,31.10
2022-09-11T08:21:19.853Z,30.10
2022-09-11T08:22:19.855Z,30.90
2022-09-11T08:23:19.865Z,30.00
2022-09-11T08:24:19.797Z,28.50
2022-09-11T08:25:19.775Z,30.40
2022-09-11T08:26:19.769Z,28.20
2022-09-11T08:27:19.768Z,29.70
2022-09-11T08:28:19.861Z,29.80
2022-09-11T08:29:19.658Z,29.30
2022-09-11T08:30:19.908Z,29.00
2022-09-11T08:31:20.040Z,29.10
2022-09-11T08:32:20.226Z,28.30
2022-09-11T08:33:19.744Z,28.90
2022-09-11T08:34:20.217Z,26.90
2022-09-11T08:35:20.131Z,29.80
2022-09-11T08:36:20.139Z,29.00
2022-09-11T08:37:20.123Z,27.60
2022-09-11T08:38:19.683Z,29.50
2022-09-11T08:39:19.788Z,28.80
2022-09-11T08:40:20.413Z,27.00
2022-09-11T08:41:20.188Z,26.70
2022-09-11T08:42:19.786Z,25.40
2022-09-11T08:43:19.709Z,26.70
2022-09-11T08:44:19.917Z,28.50
2022-09-11T08:45:19.720Z,27.00
2022-09-11T08:46:19.936Z,28.70
2022-09-11T08:47:20.192Z,26.90
2022-09-11T08:48:20.139Z,25.00
2022-09-11T08:49:19.865Z,25.70
2022-09-11T08:50:19.835Z,27.00
2022-09-11T08:51:19.837Z,26.30
2022-09-11T08:52:19.600Z,27.00
2022-09-11T08:53:19.635Z,25.80
2022-09-11T08:54:20.221Z,27.10
2022-09-11T08:56:37.688Z,24.90
2022-09-11T08:58:10.949Z,27.00
2022-09-11T08:59:11.718Z,26.90
2022-09-11T09:00:11.439Z,31.70
2022-09-11T09:01:11.458Z,28.80
2022-09-11T09:02:11.347Z,27.30
2022-09-11T09:03:11.251Z,27.20
2022-09-11T09:04:11.287Z,26.70
2022-09-11T09:05:11.338Z,27.60
2022-09-11T09:06:11.232Z,29.50
2022-09-11T09:07:11.304Z,30.00
2022-09-11T09:08:11.145Z,27.80
2022-09-11T09:09:11.210Z,29.20
2022-09-11T09:10:11.214Z,28.40
2022-09-11T09:11:11.156Z,29.60
2022-09-11T09:12:11.265Z,30.40
2022-09-11T09:13:11.242Z,31.20
2022-09-11T09:14:11.157Z,30.60
2022-09-11T09:15:11.138Z,30.80
2022-09-11T09:16:11.132Z,30.50
2022-09-11T09:17:11.103Z,31.50
2022-09-11T09:18:11.031Z,31.30
2022-09-11T09:19:11.101Z,28.60
2022-09-11T09:20:11.040Z,31.40
2022-09-11T09:21:11.006Z,29.80
2022-09-11T09:22:11.028Z,28.60
2022-09-11T09:23:10.990Z,30.20
2022-09-11T09:24:10.993Z,30.10
2022-09-11T09:25:10.987Z,29.30
2022-09-11T09:26:10.946Z,30.50
2022-09-11T09:27:10.988Z,30.70
2022-09-11T09:28:10.928Z,29.70
2022-09-11T09:29:11.018Z,29.90
2022-09-11T09:30:10.939Z,28.90
2022-09-11T09:31:11.019Z,28.50
2022-09-11T09:32:10.944Z,29.20
2022-09-11T09:33:13.299Z,28.30
2022-09-11T09:34:10.977Z,27.90
2022-09-11T09:35:10.955Z,29.60
2022-09-11T09:36:10.858Z,28.10
2022-09-11T09:37:10.923Z,28.40
2022-09-11T09:38:10.805Z,29.40
2022-09-11T09:39:10.808Z,30.50
2022-09-11T09:40:10.986Z,30.20
2022-09-11T09:41:10.869Z,29.10
2022-09-11T09:42:10.797Z,29.10
2022-09-11T09:43:10.835Z,29.00
2022-09-11T09:44:10.787Z,27.20
2022-09-11T09:45:10.818Z,27.10
2022-09-11T09:46:10.838Z,26.40
2022-09-11T09:47:10.724Z,27.70
2022-09-11T09:48:10.718Z,28.10
2022-09-11T09:49:10.781Z,25.50
2022-09-11T09:50:10.786Z,27.10
2022-09-11T09:51:10.660Z,26.50
2022-09-11T09:52:10.711Z,26.50
2022-09-11T09:53:10.653Z,24.80
2022-09-11T09:54:10.664Z,22.90
2022-09-11T09:55:10.676Z,22.30
2022-09-11T09:56:10.629Z,20.60
2022-09-11T09:57:10.648Z,19.90
2022-09-11T09:58:10.576Z,20.20
2022-09-11T09:59:10.578Z,19.60
2022-09-11T10:00:10.639Z,20.20
2022-09-11T10:01:10.722Z,19.80
2022-09-11T10:02:10.640Z,20.60
2022-09-11T10:03:10.522Z,20.20
2022-09-11T10:04:10.553Z,18.00
2022-09-11T10:05:10.551Z,19.40
2022-09-11T10:06:10.558Z,18.30
2022-09-11T10:07:10.560Z,17.20
2022-09-11T10:08:10.509Z,16.90
2022-09-11T10:09:10.464Z,17.20
2022-09-11T10:10:10.459Z,17.10
2022-09-11T10:11:10.459Z,17.50
2022-09-11T10:12:10.443Z,16.30
2022-09-11T10:13:19.360Z,18.10
2022-09-11T10:14:13.651Z,18.10
2022-09-11T10:15:10.448Z,17.40
2022-09-11T10:16:10.453Z,16.50
2022-09-11T10:17:10.369Z,17.80
2022-09-11T10:18:10.380Z,17.90
2022-09-11T10:19:10.357Z,17.30
2022-09-11T10:20:10.356Z,17.50
2022-09-11T10:21:10.336Z,17.70
2022-09-11T10:22:10.324Z,17.70
2022-09-11T10:23:10.337Z,17.20
2022-09-11T10:24:10.283Z,17.30
2022-09-11T10:25:10.296Z,16.80
2022-09-11T10:26:10.261Z,16.20
2022-09-11T10:27:10.278Z,16.70
2022-09-11T10:28:10.234Z,16.30
2022-09-11T10:29:10.225Z,16.80
2022-09-11T10:30:10.249Z,17.20
2022-09-11T10:31:10.235Z,16.30
2022-09-11T10:32:10.178Z,16.80
2022-09-11T10:33:10.177Z,17.30
2022-09-11T10:34:10.183Z,16.80
2022-09-11T10:35:10.190Z,17.40
2022-09-11T10:36:10.230Z,16.50
2022-09-11T10:37:10.162Z,16.40
2022-09-11T10:38:10.146Z,16.30
2022-09-11T10:39:10.125Z,16.50
2022-09-11T10:40:10.176Z,17.10
2022-09-11T10:41:10.107Z,17.00
2022-09-11T10:42:10.128Z,15.00
2022-09-11T10:43:10.089Z,15.80
2022-09-11T10:44:10.058Z,14.80
2022-09-11T10:45:10.100Z,15.80
2022-09-11T10:46:10.085Z,15.40
2022-09-11T10:47:10.062Z,15.90
2022-09-11T10:48:09.993Z,14.50
2022-09-11T10:49:09.989Z,14.00
2022-09-11T10:50:09.995Z,14.10
2022-09-11T10:51:09.980Z,13.20
2022-09-11T10:52:09.983Z,13.40
2022-09-11T10:53:09.937Z,13.30
2022-09-11T10:54:09.939Z,12.50
2022-09-11T10:55:09.922Z,13.50
2022-09-11T10:56:09.935Z,13.30
2022-09-11T10:57:09.939Z,12.80
2022-09-11T10:58:09.909Z,12.60
2022-09-11T10:59:09.896Z,13.10
2022-09-11T11:00:09.889Z,13.10
2022-09-11T11:01:09.950Z,12.90
2022-09-11T11:02:09.868Z,12.90
2022-09-11T11:03:09.856Z,12.80
2022-09-11T11:04:12.322Z,12.60
2022-09-11T11:05:09.817Z,12.00
2022-09-11T11:06:09.792Z,11.80
2022-09-11T11:07:09.798Z,11.50
2022-09-11T11:08:09.831Z,12.00
2022-09-11T11:09:09.773Z,11.70
2022-09-11T11:10:09.822Z,11.90
2022-09-11T11:11:09.756Z,12.10
2022-09-11T11:12:09.743Z,11.10
2022-09-11T11:13:09.735Z,10.90
2022-09-11T11:14:09.734Z,11.50
2022-09-11T11:15:09.715Z,11.10
2022-09-11T11:16:09.723Z,11.00
2022-09-11T11:17:09.666Z,10.10
2022-09-11T11:18:09.665Z,9.90
2022-09-11T11:19:09.671Z,9.90
2022-09-11T11:20:09.638Z,9.80
2022-09-11T11:21:09.622Z,11.00
2022-09-11T11:22:09.638Z,10.30
2022-09-11T11:23:13.312Z,9.90
2022-09-11T11:24:09.647Z,10.00
2022-09-11T11:25:09.579Z,9.60
2022-09-11T11:26:09.579Z,9.90
2022-09-11T11:27:09.558Z,9.70
2022-09-11T11:28:09.551Z,9.50
2022-09-11T11:29:09.539Z,9.60
2022-09-11T11:30:09.562Z,9.30
2022-09-11T11:31:09.558Z,8.80
2022-09-11T11:32:09.512Z,9.30
2022-09-11T11:33:09.504Z,8.30
2022-09-11T11:34:09.480Z,8.00
2022-09-11T11:35:09.505Z,9.20
2022-09-11T11:36:09.484Z,8.10
2022-09-11T11:37:09.454Z,9.00
2022-09-11T11:38:09.442Z,8.20
2022-09-11T11:39:09.431Z,9.10
2022-09-11T11:40:09.627Z,9.10
2022-09-11T11:41:09.430Z,8.10
2022-09-11T11:42:09.408Z,8.50
2022-09-11T11:43:09.405Z,8.80
2022-09-11T11:44:09.421Z,8.20
2022-09-11T11:45:09.458Z,8.20
2022-09-11T11:46:09.549Z,7.90
2022-09-11T11:47:09.338Z,8.10
2022-09-11T11:48:09.355Z,8.40
2022-09-11T11:49:09.444Z,8.10
2022-09-11T11:50:09.317Z,7.80
2022-09-11T11:51:09.406Z,8.20
2022-09-11T11:52:09.289Z,8.30
2022-09-11T11:53:09.281Z,8.40
2022-09-11T11:54:09.328Z,7.90
2022-09-11T11:55:09.243Z,7.60
2022-09-11T11:56:09.758Z,7.80
2022-09-11T11:57:09.241Z,7.30
2022-09-11T11:58:09.212Z,7.60
2022-09-11T11:59:09.508Z,7.50
2022-09-11T12:00:09.275Z,7.70
2022-09-11T12:01:09.526Z,7.70
2022-09-11T12:02:09.380Z,7.80
2022-09-11T12:03:09.194Z,8.00
2022-09-11T12:04:09.187Z,7.80
2022-09-11T12:05:09.186Z,7.50
2022-09-11T12:06:09.118Z,7.50
2022-09-11T12:07:09.159Z,8.40
2022-09-11T12:08:09.112Z,7.60
2022-09-11T12:09:09.276Z,8.20
2022-09-11T12:10:09.088Z,8.40
2022-09-11T12:11:09.101Z,8.40
2022-09-11T12:12:09.077Z,8.80
2022-09-11T12:13:09.064Z,8.30
2022-09-11T12:14:09.044Z,8.80
2022-09-11T12:15:09.221Z,8.40
2022-09-11T12:16:11.286Z,8.70
2022-09-11T12:17:09.032Z,8.10
2022-09-11T12:18:09.006Z,8.70
2022-09-11T12:19:09.003Z,8.20
2022-09-11T12:20:09.006Z,9.30
2022-09-11T12:21:09.017Z,8.60
2022-09-11T12:22:08.978Z,8.50
2022-09-11T12:23:08.936Z,8.90
2022-09-11T12:24:09.005Z,8.90
2022-09-11T12:25:08.960Z,8.40
2022-09-11T12:26:08.956Z,8.80
2022-09-11T12:27:11.840Z,8.00
2022-09-11T12:28:08.872Z,8.40
2022-09-11T12:29:08.885Z,9.00
2022-09-11T12:30:08.922Z,9.60
2022-09-11T12:31:08.934Z,8.80
2022-09-11T12:32:08.846Z,9.90
2022-09-11T12:33:08.820Z,8.90
2022-09-11T12:34:08.817Z,9.50
2022-09-11T12:35:08.819Z,9.00
2022-09-11T12:36:08.832Z,9.10
2022-09-11T12:37:08.760Z,8.80
2022-09-11T12:38:08.788Z,9.50
2022-09-11T12:39:08.786Z,9.40
2022-09-11T12:40:08.809Z,8.40
2022-09-11T12:41:08.760Z,9.60
2022-09-11T12:42:08.754Z,9.30
2022-09-11T12:43:09.295Z,9.60
2022-09-11T12:44:08.683Z,9.00
2022-09-11T12:45:08.771Z,9.40
2022-09-11T12:46:08.706Z,8.80
2022-09-11T12:47:08.690Z,8.90
2022-09-11T12:48:08.676Z,11.00
2022-09-11T12:49:22.067Z,10.40
2022-09-11T12:50:08.757Z,10.70
2022-09-11T12:51:08.704Z,10.40
2022-09-11T12:52:08.775Z,9.50
2022-09-11T12:53:08.606Z,10.60
2022-09-11T12:54:08.668Z,10.10
2022-09-11T12:55:08.605Z,9.70
2022-09-11T12:56:08.556Z,11.00
2022-09-11T12:57:08.555Z,10.50